sensor_id;sensor_type;location;lat;lon;timestamp;P1;durP1;ratioP1;P2;durP2;ratioP2
30080;SDS011;16902;50.816;12.828;2024-03-02T00:00:07;8.95;;;6.60;;
30080;SDS011;16902;50.816;12.828;2024-03-02T00:05:16;10.10;;;7.03;;
30080;SDS011;16902;50.816;12.828;2024-03-02T00:10:22;11.38;;;7.70;;
30080;SDS011;16902;50.816;12.828;2024-03-02T00:15:39;12.50;;;7.63;;
30080;SDS011;16902;50.816;12.828;2024-03-02T00:20:49;11.95;;;7.85;;
30080;SDS011;16902;50.816;12.828;2024-03-02T00:25:55;9.93;;;6.72;;
30080;SDS011;16902;50.816;12.828;2024-03-02T00:31:04;8.07;;;7.28;;
30080;SDS011;16902;50.816;12.828;2024-03-02T00:36:06;11.85;;;8.02;;
30080;SDS011;16902;50.816;12.828;2024-03-02T00:41:11;11.25;;;7.47;;
30080;SDS011;16902;50.816;12.828;2024-03-02T00:46:31;11.27;;;8.27;;
30080;SDS011;16902;50.816;12.828;2024-03-02T00:51:35;10.40;;;7.63;;
30080;SDS011;16902;50.816;12.828;2024-03-02T00:56:38;13.55;;;8.20;;
30080;SDS011;16902;50.816;12.828;2024-03-02T01:01:40;12.77;;;7.88;;
30080;SDS011;16902;50.816;12.828;2024-03-02T01:06:42;10.73;;;7.47;;
30080;SDS011;16902;50.816;12.828;2024-03-02T01:11:44;12.55;;;7.47;;
30080;SDS011;16902;50.816;12.828;2024-03-02T01:16:46;10.00;;;6.50;;
30080;SDS011;16902;50.816;12.828;2024-03-02T01:21:48;12.23;;;7.60;;
30080;SDS011;16902;50.816;12.828;2024-03-02T01:26:52;9.65;;;7.70;;
30080;SDS011;16902;50.816;12.828;2024-03-02T01:31:54;8.18;;;6.82;;
30080;SDS011;16902;50.816;12.828;2024-03-02T01:36:55;11.73;;;7.90;;
30080;SDS011;16902;50.816;12.828;2024-03-02T01:41:57;14.60;;;7.65;;
30080;SDS011;16902;50.816;12.828;2024-03-02T01:46:59;15.60;;;7.93;;
30080;SDS011;16902;50.816;12.828;2024-03-02T01:52:01;12.55;;;8.32;;
30080;SDS011;16902;50.816;12.828;2024-03-02T01:57:03;13.30;;;7.38;;
30080;SDS011;16902;50.816;12.828;2024-03-02T02:02:05;8.75;;;6.75;;
30080;SDS011;16902;50.816;12.828;2024-03-02T02:07:08;10.77;;;7.97;;
30080;SDS011;16902;50.816;12.828;2024-03-02T02:12:10;11.15;;;7.85;;
30080;SDS011;16902;50.816;12.828;2024-03-02T02:17:12;10.27;;;6.85;;
30080;SDS011;16902;50.816;12.828;2024-03-02T02:22:13;10.23;;;6.82;;
30080;SDS011;16902;50.816;12.828;2024-03-02T02:27:15;8.77;;;6.38;;
30080;SDS011;16902;50.816;12.828;2024-03-02T02:32:17;14.48;;;7.35;;
30080;SDS011;16902;50.816;12.828;2024-03-02T02:37:19;10.32;;;7.82;;
30080;SDS011;16902;50.816;12.828;2024-03-02T02:42:21;21.65;;;8.65;;
30080;SDS011;16902;50.816;12.828;2024-03-02T02:47:23;11.13;;;7.20;;
30080;SDS011;16902;50.816;12.828;2024-03-02T02:52:25;10.40;;;6.05;;
30080;SDS011;16902;50.816;12.828;2024-03-02T02:57:27;13.27;;;7.45;;
30080;SDS011;16902;50.816;12.828;2024-03-02T03:02:31;9.63;;;6.85;;
30080;SDS011;16902;50.816;12.828;2024-03-02T03:07:33;7.90;;;6.97;;
30080;SDS011;16902;50.816;12.828;2024-03-02T03:12:39;9.65;;;6.68;;
30080;SDS011;16902;50.816;12.828;2024-03-02T03:17:42;10.40;;;6.50;;
30080;SDS011;16902;50.816;12.828;2024-03-02T03:22:44;15.63;;;8.48;;
30080;SDS011;16902;50.816;12.828;2024-03-02T03:27:46;10.98;;;7.03;;
30080;SDS011;16902;50.816;12.828;2024-03-02T03:32:48;8.65;;;6.53;;
30080;SDS011;16902;50.816;12.828;2024-03-02T03:37:50;7.32;;;5.55;;
30080;SDS011;16902;50.816;12.828;2024-03-02T03:42:53;11.30;;;7.25;;
30080;SDS011;16902;50.816;12.828;2024-03-02T03:47:57;7.85;;;5.82;;
30080;SDS011;16902;50.816;12.828;2024-03-02T03:52:59;9.63;;;7.45;;
30080;SDS011;16902;50.816;12.828;2024-03-02T03:58:00;11.07;;;5.85;;
30080;SDS011;16902;50.816;12.828;2024-03-02T04:03:02;9.98;;;5.82;;
30080;SDS011;16902;50.816;12.828;2024-03-02T04:08:05;8.93;;;6.03;;
30080;SDS011;16902;50.816;12.828;2024-03-02T04:13:07;8.38;;;6.43;;
30080;SDS011;16902;50.816;12.828;2024-03-02T04:18:08;8.10;;;5.88;;
30080;SDS011;16902;50.816;12.828;2024-03-02T04:23:10;15.32;;;6.90;;
30080;SDS011;16902;50.816;12.828;2024-03-02T04:28:12;9.68;;;6.30;;
30080;SDS011;16902;50.816;12.828;2024-03-02T04:33:14;10.52;;;6.03;;
30080;SDS011;16902;50.816;12.828;2024-03-02T04:38:16;8.60;;;5.72;;
30080;SDS011;16902;50.816;12.828;2024-03-02T04:43:18;7.53;;;6.00;;
30080;SDS011;16902;50.816;12.828;2024-03-02T04:48:20;10.82;;;6.40;;
30080;SDS011;16902;50.816;12.828;2024-03-02T04:53:23;8.75;;;5.90;;
30080;SDS011;16902;50.816;12.828;2024-03-02T04:58:25;8.82;;;6.85;;
30080;SDS011;16902;50.816;12.828;2024-03-02T05:03:27;8.57;;;5.43;;
30080;SDS011;16902;50.816;12.828;2024-03-02T05:08:29;6.72;;;5.43;;
30080;SDS011;16902;50.816;12.828;2024-03-02T05:13:31;9.45;;;6.28;;
30080;SDS011;16902;50.816;12.828;2024-03-02T05:18:33;9.82;;;6.15;;
30080;SDS011;16902;50.816;12.828;2024-03-02T05:23:35;8.48;;;5.70;;
30080;SDS011;16902;50.816;12.828;2024-03-02T05:28:37;9.38;;;6.25;;
30080;SDS011;16902;50.816;12.828;2024-03-02T05:33:39;8.05;;;5.63;;
30080;SDS011;16902;50.816;12.828;2024-03-02T05:38:41;10.93;;;6.38;;
30080;SDS011;16902;50.816;12.828;2024-03-02T05:43:43;6.70;;;5.40;;
30080;SDS011;16902;50.816;12.828;2024-03-02T05:48:44;7.72;;;6.10;;
30080;SDS011;16902;50.816;12.828;2024-03-02T05:53:46;10.55;;;6.38;;
30080;SDS011;16902;50.816;12.828;2024-03-02T05:58:49;6.70;;;4.78;;
30080;SDS011;16902;50.816;12.828;2024-03-02T06:03:57;9.43;;;6.20;;
30080;SDS011;16902;50.816;12.828;2024-03-02T06:09:01;5.50;;;4.90;;
30080;SDS011;16902;50.816;12.828;2024-03-02T06:14:07;5.55;;;4.78;;
30080;SDS011;16902;50.816;12.828;2024-03-02T06:19:10;6.72;;;5.25;;
30080;SDS011;16902;50.816;12.828;2024-03-02T06:24:12;5.20;;;4.32;;
30080;SDS011;16902;50.816;12.828;2024-03-02T06:29:14;10.07;;;5.78;;
30080;SDS011;16902;50.816;12.828;2024-03-02T06:34:15;6.18;;;4.95;;
30080;SDS011;16902;50.816;12.828;2024-03-02T06:39:17;7.28;;;5.07;;
30080;SDS011;16902;50.816;12.828;2024-03-02T06:44:19;7.28;;;5.60;;
30080;SDS011;16902;50.816;12.828;2024-03-02T06:49:22;5.45;;;4.90;;
30080;SDS011;16902;50.816;12.828;2024-03-02T06:54:24;6.75;;;5.65;;
30080;SDS011;16902;50.816;12.828;2024-03-02T06:59:26;8.82;;;4.90;;
30080;SDS011;16902;50.816;12.828;2024-03-02T07:04:28;7.80;;;5.13;;
30080;SDS011;16902;50.816;12.828;2024-03-02T07:09:30;8.20;;;5.05;;
30080;SDS011;16902;50.816;12.828;2024-03-02T07:14:32;5.60;;;4.53;;
30080;SDS011;16902;50.816;12.828;2024-03-02T07:20:06;9.77;;;5.15;;
30080;SDS011;16902;50.816;12.828;2024-03-02T07:25:08;5.18;;;4.15;;
30080;SDS011;16902;50.816;12.828;2024-03-02T07:30:30;7.97;;;5.32;;
30080;SDS011;16902;50.816;12.828;2024-03-02T07:35:34;6.68;;;5.53;;
30080;SDS011;16902;50.816;12.828;2024-03-02T07:40:36;7.20;;;5.25;;
30080;SDS011;16902;50.816;12.828;2024-03-02T07:45:38;8.68;;;5.90;;
30080;SDS011;16902;50.816;12.828;2024-03-02T07:50:40;8.70;;;5.45;;
30080;SDS011;16902;50.816;12.828;2024-03-02T07:55:42;5.93;;;5.20;;
30080;SDS011;16902;50.816;12.828;2024-03-02T08:00:44;7.45;;;4.95;;
30080;SDS011;16902;50.816;12.828;2024-03-02T08:05:46;5.25;;;4.75;;
30080;SDS011;16902;50.816;12.828;2024-03-02T08:10:48;8.32;;;5.53;;
30080;SDS011;16902;50.816;12.828;2024-03-02T08:15:50;5.88;;;4.57;;
30080;SDS011;16902;50.816;12.828;2024-03-02T08:20:53;5.18;;;4.47;;
30080;SDS011;16902;50.816;12.828;2024-03-02T08:25:54;5.85;;;5.25;;
30080;SDS011;16902;50.816;12.828;2024-03-02T08:30:56;6.43;;;5.13;;
30080;SDS011;16902;50.816;12.828;2024-03-02T08:35:58;6.70;;;4.10;;
30080;SDS011;16902;50.816;12.828;2024-03-02T08:41:00;7.45;;;4.50;;
30080;SDS011;16902;50.816;12.828;2024-03-02T08:46:02;5.70;;;4.75;;
30080;SDS011;16902;50.816;12.828;2024-03-02T08:51:05;7.47;;;4.57;;
30080;SDS011;16902;50.816;12.828;2024-03-02T08:56:09;5.00;;;4.03;;
30080;SDS011;16902;50.816;12.828;2024-03-02T09:01:11;4.82;;;4.30;;
30080;SDS011;16902;50.816;12.828;2024-03-02T09:06:13;6.78;;;4.25;;
30080;SDS011;16902;50.816;12.828;2024-03-02T09:11:15;7.53;;;4.47;;
30080;SDS011;16902;50.816;12.828;2024-03-02T09:16:17;5.32;;;4.82;;
30080;SDS011;16902;50.816;12.828;2024-03-02T09:21:19;5.10;;;4.03;;
30080;SDS011;16902;50.816;12.828;2024-03-02T09:26:21;7.65;;;5.82;;
30080;SDS011;16902;50.816;12.828;2024-03-02T09:31:24;5.68;;;4.82;;
30080;SDS011;16902;50.816;12.828;2024-03-02T09:36:25;7.30;;;4.93;;
30080;SDS011;16902;50.816;12.828;2024-03-02T09:41:27;5.38;;;4.75;;
30080;SDS011;16902;50.816;12.828;2024-03-02T09:46:29;6.47;;;4.82;;
30080;SDS011;16902;50.816;12.828;2024-03-02T09:51:31;9.30;;;5.35;;
30080;SDS011;16902;50.816;12.828;2024-03-02T09:56:33;6.90;;;5.10;;
30080;SDS011;16902;50.816;12.828;2024-03-02T10:01:35;6.60;;;5.50;;
30080;SDS011;16902;50.816;12.828;2024-03-02T10:06:37;5.28;;;4.78;;
30080;SDS011;16902;50.816;12.828;2024-03-02T10:11:39;6.72;;;5.10;;
30080;SDS011;16902;50.816;12.828;2024-03-02T10:16:42;5.47;;;4.43;;
30080;SDS011;16902;50.816;12.828;2024-03-02T10:21:48;5.50;;;5.00;;
30080;SDS011;16902;50.816;12.828;2024-03-02T10:26:56;5.55;;;5.15;;
30080;SDS011;16902;50.816;12.828;2024-03-02T10:31:58;6.30;;;5.80;;
30080;SDS011;16902;50.816;12.828;2024-03-02T10:37:04;7.93;;;7.43;;
30080;SDS011;16902;50.816;12.828;2024-03-02T10:42:08;9.80;;;9.20;;
30080;SDS011;16902;50.816;12.828;2024-03-02T10:47:11;12.10;;;11.15;;
30080;SDS011;16902;50.816;12.828;2024-03-02T10:52:15;10.70;;;10.07;;
30080;SDS011;16902;50.816;12.828;2024-03-02T10:57:17;14.10;;;13.13;;
30080;SDS011;16902;50.816;12.828;2024-03-02T11:02:24;12.73;;;12.05;;
30080;SDS011;16902;50.816;12.828;2024-03-02T11:07:29;12.77;;;11.98;;
30080;SDS011;16902;50.816;12.828;2024-03-02T11:12:33;12.55;;;11.85;;
30080;SDS011;16902;50.816;12.828;2024-03-02T11:17:36;13.88;;;13.20;;
30080;SDS011;16902;50.816;12.828;2024-03-02T11:22:41;16.92;;;16.02;;
30080;SDS011;16902;50.816;12.828;2024-03-02T11:32:54;18.83;;;17.83;;
30080;SDS011;16902;50.816;12.828;2024-03-02T11:37:57;18.35;;;17.40;;
30080;SDS011;16902;50.816;12.828;2024-03-02T11:43:01;17.73;;;16.83;;
30080;SDS011;16902;50.816;12.828;2024-03-02T11:48:06;17.35;;;16.55;;
30080;SDS011;16902;50.816;12.828;2024-03-02T11:53:10;17.52;;;16.63;;
30080;SDS011;16902;50.816;12.828;2024-03-02T11:58:13;17.55;;;16.70;;
30080;SDS011;16902;50.816;12.828;2024-03-02T12:03:20;17.83;;;16.98;;
30080;SDS011;16902;50.816;12.828;2024-03-02T12:08:27;18.00;;;16.92;;
30080;SDS011;16902;50.816;12.828;2024-03-02T12:13:29;17.83;;;17.02;;
30080;SDS011;16902;50.816;12.828;2024-03-02T12:18:31;18.27;;;17.48;;
30080;SDS011;16902;50.816;12.828;2024-03-02T12:23:34;17.80;;;16.90;;
30080;SDS011;16902;50.816;12.828;2024-03-02T12:28:36;18.17;;;17.00;;
30080;SDS011;16902;50.816;12.828;2024-03-02T12:33:38;18.40;;;17.50;;
30080;SDS011;16902;50.816;12.828;2024-03-02T12:38:44;18.25;;;17.45;;
30080;SDS011;16902;50.816;12.828;2024-03-02T12:43:46;18.35;;;17.42;;
30080;SDS011;16902;50.816;12.828;2024-03-02T12:48:48;17.83;;;17.02;;
30080;SDS011;16902;50.816;12.828;2024-03-02T12:53:59;18.38;;;17.40;;
30080;SDS011;16902;50.816;12.828;2024-03-02T12:59:01;17.85;;;17.00;;
30080;SDS011;16902;50.816;12.828;2024-03-02T13:04:03;18.33;;;17.42;;
30080;SDS011;16902;50.816;12.828;2024-03-02T13:09:05;18.08;;;17.17;;
30080;SDS011;16902;50.816;12.828;2024-03-02T13:14:17;19.27;;;18.00;;
30080;SDS011;16902;50.816;12.828;2024-03-02T13:19:19;17.92;;;17.08;;
30080;SDS011;16902;50.816;12.828;2024-03-02T13:24:21;18.80;;;17.80;;
30080;SDS011;16902;50.816;12.828;2024-03-02T13:29:23;18.85;;;17.85;;
30080;SDS011;16902;50.816;12.828;2024-03-02T13:34:25;18.17;;;17.23;;
30080;SDS011;16902;50.816;12.828;2024-03-02T13:39:27;18.95;;;18.05;;
30080;SDS011;16902;50.816;12.828;2024-03-02T13:44:32;18.33;;;17.42;;
30080;SDS011;16902;50.816;12.828;2024-03-02T13:49:34;18.10;;;17.20;;
30080;SDS011;16902;50.816;12.828;2024-03-02T13:54:40;18.85;;;17.85;;
30080;SDS011;16902;50.816;12.828;2024-03-02T13:59:43;19.25;;;18.02;;
30080;SDS011;16902;50.816;12.828;2024-03-02T14:04:46;19.10;;;18.00;;
30080;SDS011;16902;50.816;12.828;2024-03-02T14:09:50;18.45;;;17.55;;
30080;SDS011;16902;50.816;12.828;2024-03-02T14:14:52;19.35;;;18.33;;
30080;SDS011;16902;50.816;12.828;2024-03-02T14:19:57;19.70;;;18.60;;
30080;SDS011;16902;50.816;12.828;2024-03-02T14:25:00;19.35;;;18.42;;
30080;SDS011;16902;50.816;12.828;2024-03-02T14:30:02;19.17;;;18.17;;
30080;SDS011;16902;50.816;12.828;2024-03-02T14:35:04;18.55;;;17.60;;
30080;SDS011;16902;50.816;12.828;2024-03-02T14:40:07;18.52;;;17.58;;
30080;SDS011;16902;50.816;12.828;2024-03-02T14:45:11;16.52;;;15.73;;
30080;SDS011;16902;50.816;12.828;2024-03-02T14:50:13;16.58;;;15.65;;
30080;SDS011;16902;50.816;12.828;2024-03-02T14:55:18;15.57;;;14.73;;
30080;SDS011;16902;50.816;12.828;2024-03-02T15:00:20;14.13;;;13.43;;
30080;SDS011;16902;50.816;12.828;2024-03-02T15:05:22;13.40;;;12.27;;
30080;SDS011;16902;50.816;12.828;2024-03-02T15:10:24;12.35;;;11.75;;
30080;SDS011;16902;50.816;12.828;2024-03-02T15:15:26;12.90;;;11.93;;
30080;SDS011;16902;50.816;12.828;2024-03-02T15:20:28;12.55;;;11.77;;
30080;SDS011;16902;50.816;12.828;2024-03-02T15:25:29;12.57;;;11.50;;
30080;SDS011;16902;50.816;12.828;2024-03-02T15:30:31;12.63;;;11.75;;
30080;SDS011;16902;50.816;12.828;2024-03-02T15:35:33;11.90;;;11.02;;
30080;SDS011;16902;50.816;12.828;2024-03-02T15:40:35;11.52;;;10.73;;
30080;SDS011;16902;50.816;12.828;2024-03-02T15:45:37;11.63;;;10.43;;
30080;SDS011;16902;50.816;12.828;2024-03-02T15:50:39;11.98;;;9.80;;
30080;SDS011;16902;50.816;12.828;2024-03-02T15:55:41;9.65;;;8.85;;
30080;SDS011;16902;50.816;12.828;2024-03-02T16:00:43;9.25;;;8.38;;
30080;SDS011;16902;50.816;12.828;2024-03-02T16:05:45;9.45;;;7.55;;
30080;SDS011;16902;50.816;12.828;2024-03-02T16:10:47;8.95;;;7.82;;
30080;SDS011;16902;50.816;12.828;2024-03-02T16:15:49;7.97;;;7.05;;
30080;SDS011;16902;50.816;12.828;2024-03-02T16:20:51;7.90;;;7.20;;
30080;SDS011;16902;50.816;12.828;2024-03-02T16:25:52;7.22;;;6.63;;
30080;SDS011;16902;50.816;12.828;2024-03-02T16:30:55;6.70;;;6.10;;
30080;SDS011;16902;50.816;12.828;2024-03-02T16:35:57;6.85;;;6.22;;
30080;SDS011;16902;50.816;12.828;2024-03-02T16:40:59;12.73;;;7.43;;
30080;SDS011;16902;50.816;12.828;2024-03-02T16:46:00;9.90;;;6.00;;
30080;SDS011;16902;50.816;12.828;2024-03-02T16:51:03;9.68;;;8.27;;
30080;SDS011;16902;50.816;12.828;2024-03-02T16:56:05;15.50;;;6.88;;
30080;SDS011;16902;50.816;12.828;2024-03-02T17:01:07;6.88;;;5.63;;
30080;SDS011;16902;50.816;12.828;2024-03-02T17:06:10;8.30;;;6.95;;
30080;SDS011;16902;50.816;12.828;2024-03-02T17:11:12;9.07;;;6.88;;
30080;SDS011;16902;50.816;12.828;2024-03-02T17:16:14;7.03;;;6.20;;
30080;SDS011;16902;50.816;12.828;2024-03-02T17:21:17;7.45;;;6.25;;
30080;SDS011;16902;50.816;12.828;2024-03-02T17:26:19;11.88;;;7.60;;
30080;SDS011;16902;50.816;12.828;2024-03-02T17:31:21;10.07;;;6.68;;
30080;SDS011;16902;50.816;12.828;2024-03-02T17:36:23;7.88;;;5.68;;
30080;SDS011;16902;50.816;12.828;2024-03-02T17:41:25;7.43;;;5.95;;
30080;SDS011;16902;50.816;12.828;2024-03-02T17:46:27;14.70;;;7.95;;
30080;SDS011;16902;50.816;12.828;2024-03-02T17:51:29;12.48;;;7.25;;
30080;SDS011;16902;50.816;12.828;2024-03-02T17:56:31;12.95;;;7.50;;
30080;SDS011;16902;50.816;12.828;2024-03-02T18:01:33;8.07;;;6.20;;
30080;SDS011;16902;50.816;12.828;2024-03-02T18:06:36;14.25;;;7.40;;
30080;SDS011;16902;50.816;12.828;2024-03-02T18:11:38;9.60;;;6.05;;
30080;SDS011;16902;50.816;12.828;2024-03-02T18:16:41;11.82;;;7.32;;
30080;SDS011;16902;50.816;12.828;2024-03-02T18:21:43;8.68;;;6.78;;
30080;SDS011;16902;50.816;12.828;2024-03-02T18:26:47;10.48;;;7.75;;
30080;SDS011;16902;50.816;12.828;2024-03-02T18:31:49;11.45;;;7.47;;
30080;SDS011;16902;50.816;12.828;2024-03-02T18:36:51;12.50;;;7.85;;
30080;SDS011;16902;50.816;12.828;2024-03-02T18:41:56;13.52;;;7.00;;
30080;SDS011;16902;50.816;12.828;2024-03-02T18:46:58;11.27;;;7.47;;
30080;SDS011;16902;50.816;12.828;2024-03-02T18:52:00;9.93;;;6.95;;
30080;SDS011;16902;50.816;12.828;2024-03-02T18:57:02;12.25;;;7.97;;
30080;SDS011;16902;50.816;12.828;2024-03-02T19:02:04;11.57;;;7.93;;
30080;SDS011;16902;50.816;12.828;2024-03-02T19:07:07;9.15;;;7.07;;
30080;SDS011;16902;50.816;12.828;2024-03-02T19:12:09;11.82;;;7.85;;
30080;SDS011;16902;50.816;12.828;2024-03-02T19:17:11;10.23;;;7.40;;
30080;SDS011;16902;50.816;12.828;2024-03-02T19:22:13;11.05;;;7.70;;
30080;SDS011;16902;50.816;12.828;2024-03-02T19:27:15;11.07;;;7.97;;
30080;SDS011;16902;50.816;12.828;2024-03-02T19:32:17;9.93;;;7.28;;
30080;SDS011;16902;50.816;12.828;2024-03-02T19:37:23;13.30;;;7.13;;
30080;SDS011;16902;50.816;12.828;2024-03-02T19:42:25;17.70;;;6.68;;
30080;SDS011;16902;50.816;12.828;2024-03-02T19:47:27;9.38;;;6.75;;
30080;SDS011;16902;50.816;12.828;2024-03-02T19:52:30;6.65;;;5.95;;
30080;SDS011;16902;50.816;12.828;2024-03-02T19:57:32;16.38;;;6.75;;
30080;SDS011;16902;50.816;12.828;2024-03-02T20:02:42;10.75;;;7.07;;
30080;SDS011;16902;50.816;12.828;2024-03-02T20:07:44;8.05;;;6.50;;
30080;SDS011;16902;50.816;12.828;2024-03-02T20:12:46;7.85;;;6.85;;
30080;SDS011;16902;50.816;12.828;2024-03-02T20:17:49;10.75;;;7.30;;
30080;SDS011;16902;50.816;12.828;2024-03-02T20:22:51;8.13;;;6.45;;
30080;SDS011;16902;50.816;12.828;2024-03-02T20:27:53;11.27;;;7.68;;
30080;SDS011;16902;50.816;12.828;2024-03-02T20:32:55;12.52;;;7.18;;
30080;SDS011;16902;50.816;12.828;2024-03-02T20:37:57;9.90;;;7.55;;
30080;SDS011;16902;50.816;12.828;2024-03-02T20:42:59;8.35;;;6.45;;
30080;SDS011;16902;50.816;12.828;2024-03-02T20:48:02;12.95;;;7.40;;
30080;SDS011;16902;50.816;12.828;2024-03-02T20:53:04;8.93;;;6.63;;
30080;SDS011;16902;50.816;12.828;2024-03-02T20:58:08;11.20;;;7.88;;
30080;SDS011;16902;50.816;12.828;2024-03-02T21:03:10;11.18;;;7.22;;
30080;SDS011;16902;50.816;12.828;2024-03-02T21:08:13;7.32;;;5.85;;
30080;SDS011;16902;50.816;12.828;2024-03-02T21:13:15;10.65;;;7.18;;
30080;SDS011;16902;50.816;12.828;2024-03-02T21:18:17;12.88;;;6.93;;
30080;SDS011;16902;50.816;12.828;2024-03-02T21:23:19;12.63;;;7.47;;
30080;SDS011;16902;50.816;12.828;2024-03-02T21:28:21;5.90;;;5.35;;
30080;SDS011;16902;50.816;12.828;2024-03-02T21:33:27;7.43;;;6.18;;
30080;SDS011;16902;50.816;12.828;2024-03-02T21:38:29;8.60;;;5.35;;
30080;SDS011;16902;50.816;12.828;2024-03-02T21:43:31;7.20;;;5.15;;
30080;SDS011;16902;50.816;12.828;2024-03-02T21:48:34;5.43;;;4.32;;
30080;SDS011;16902;50.816;12.828;2024-03-02T21:53:36;5.45;;;4.32;;
30080;SDS011;16902;50.816;12.828;2024-03-02T21:58:39;9.57;;;5.88;;
30080;SDS011;16902;50.816;12.828;2024-03-02T22:03:41;8.73;;;6.90;;
30080;SDS011;16902;50.816;12.828;2024-03-02T22:08:47;11.73;;;6.32;;
30080;SDS011;16902;50.816;12.828;2024-03-02T22:13:49;5.38;;;4.88;;
30080;SDS011;16902;50.816;12.828;2024-03-02T22:18:51;6.43;;;5.10;;
30080;SDS011;16902;50.816;12.828;2024-03-02T22:23:53;6.70;;;4.35;;
30080;SDS011;16902;50.816;12.828;2024-03-02T22:28:54;6.57;;;4.68;;
30080;SDS011;16902;50.816;12.828;2024-03-02T22:33:56;7.80;;;4.82;;
30080;SDS011;16902;50.816;12.828;2024-03-02T22:38:58;5.50;;;4.47;;
30080;SDS011;16902;50.816;12.828;2024-03-02T22:44:00;6.60;;;5.22;;
30080;SDS011;16902;50.816;12.828;2024-03-02T22:49:02;5.65;;;5.05;;
30080;SDS011;16902;50.816;12.828;2024-03-02T22:54:04;6.70;;;5.63;;
30080;SDS011;16902;50.816;12.828;2024-03-02T22:59:06;9.32;;;5.32;;
30080;SDS011;16902;50.816;12.828;2024-03-02T23:04:08;6.13;;;4.70;;
30080;SDS011;16902;50.816;12.828;2024-03-02T23:09:09;8.13;;;5.40;;
30080;SDS011;16902;50.816;12.828;2024-03-02T23:14:13;9.27;;;5.57;;
30080;SDS011;16902;50.816;12.828;2024-03-02T23:19:15;11.98;;;5.65;;
30080;SDS011;16902;50.816;12.828;2024-03-02T23:24:22;4.80;;;4.35;;
30080;SDS011;16902;50.816;12.828;2024-03-02T23:29:24;9.70;;;5.35;;
30080;SDS011;16902;50.816;12.828;2024-03-02T23:34:26;6.03;;;5.00;;
30080;SDS011;16902;50.816;12.828;2024-03-02T23:39:30;5.65;;;4.45;;
30080;SDS011;16902;50.816;12.828;2024-03-02T23:45:00;6.97;;;4.90;;
30080;SDS011;16902;50.816;12.828;2024-03-02T23:50:03;5.78;;;5.20;;
30080;SDS011;16902;50.816;12.828;2024-03-02T23:55:06;12.55;;;5.68;;
